Time;durP1;ratioP1;P1;durP2;ratioP2;P2;SDS_P1;SDS_P2;PMS_P1;PMS_P2;Temp;Humidity;BMP_temperature;BMP_pressure;BME280_temperature;BME280_humidity;BME280_pressure;Samples;Min_cycle;Max_cycle;Signal;HPM_P1;HPM_P2
2022/03/16 00:00:39;;;;;;;2.20;1.70;;;20.40;55.30;;;;;;4995476;28;20197;-59
2022/03/16 00:03:12;;;;;;;2.05;1.48;;;20.50;55.20;;;;;;4995178;28;20735;-57
2022/03/16 00:05:42;;;;;;;1.63;1.40;;;20.50;55.20;;;;;;4995478;28;20689;-57
2022/03/16 00:08:13;;;;;;;2.30;1.50;;;20.50;55.80;;;;;;4995108;28;20736;-59
2022/03/16 00:10:44;;;;;;;1.35;1.25;;;20.50;55.10;;;;;;4995001;28;20300;-59
2022/03/16 00:13:14;;;;;;;1.52;1.40;;;20.50;55.70;;;;;;4995226;28;20614;-59
2022/03/16 00:15:46;;;;;;;1.50;1.40;;;20.60;55.10;;;;;;4994342;28;20213;-62
2022/03/16 00:18:20;;;;;;;2.03;1.33;;;20.60;55.10;;;;;;4995163;28;20705;-60
2022/03/16 00:20:51;;;;;;;1.38;1.23;;;20.60;55.50;;;;;;4994775;28;20193;-60
2022/03/16 00:23:22;;;;;;;1.38;1.17;;;20.60;55.50;;;;;;4994702;28;20240;-58
2022/03/16 00:25:52;;;;;;;1.63;1.42;;;20.60;55.60;;;;;;4994024;28;20751;-56
2022/03/16 00:28:23;;;;;;;2.25;1.30;;;20.70;55.60;;;;;;4993848;28;20661;-58
2022/03/16 00:30:53;;;;;;;1.98;1.30;;;20.70;55.60;;;;;;4995023;28;20189;-59
2022/03/16 00:33:26;;;;;;;1.38;1.10;;;20.70;55.60;;;;;;4995670;28;20190;-59
2022/03/16 00:35:56;;;;;;;2.60;1.30;;;20.70;55.50;;;;;;4994654;28;20933;-59
2022/03/16 00:38:27;;;;;;;0.93;0.93;;;20.80;55.50;;;;;;4994367;28;20268;-60
2022/03/16 00:40:58;;;;;;;1.42;1.20;;;20.80;55.50;;;;;;4993971;28;20263;-57
2022/03/16 00:43:28;;;;;;;1.67;1.10;;;20.80;55.40;;;;;;4995214;28;20201;-59
2022/03/16 00:45:59;;;;;;;1.30;0.93;;;20.80;55.40;;;;;;4993835;28;20240;-56
2022/03/16 00:48:31;;;;;;;1.10;1.00;;;20.80;55.40;;;;;;4993155;28;20272;-55
2022/03/16 00:51:03;;;;;;;1.33;1.10;;;20.80;55.40;;;;;;4993976;28;20325;-60
2022/03/16 00:53:34;;;;;;;1.30;1.20;;;20.80;55.40;;;;;;4994498;28;20201;-57
2022/03/16 00:56:05;;;;;;;1.10;1.00;;;20.80;55.40;;;;;;4995353;28;20227;-61
2022/03/16 00:58:36;;;;;;;1.70;1.20;;;20.80;55.40;;;;;;4991449;28;20225;-60
2022/03/16 01:01:09;;;;;;;1.02;0.95;;;20.90;55.50;;;;;;4991788;28;20252;-59
2022/03/16 01:03:42;;;;;;;1.30;1.20;;;20.90;55.40;;;;;;4992304;28;20200;-59
2022/03/16 01:06:15;;;;;;;1.17;1.08;;;20.90;55.40;;;;;;4990717;28;20213;-60
2022/03/16 01:08:46;;;;;;;1.20;1.05;;;20.90;55.30;;;;;;4991124;28;20205;-60
2022/03/16 01:11:17;;;;;;;1.92;1.20;;;20.90;55.30;;;;;;4991402;28;20731;-60
2022/03/16 01:13:47;;;;;;;1.48;1.00;;;20.90;55.40;;;;;;4992011;28;20194;-60
2022/03/16 01:16:18;;;;;;;2.50;1.25;;;21.00;55.40;;;;;;4990801;28;20246;-59
2022/03/16 01:18:50;;;;;;;1.20;1.10;;;21.00;55.40;;;;;;4990730;28;20221;-60
2022/03/16 01:21:21;;;;;;;1.20;1.10;;;21.00;55.50;;;;;;4990608;28;20193;-57
2022/03/16 01:23:53;;;;;;;1.00;0.93;;;21.00;55.40;;;;;;4991663;28;20665;-57
2022/03/16 01:26:24;;;;;;;1.33;1.20;;;21.00;55.40;;;;;;4991487;28;20213;-59
2022/03/16 01:28:54;;;;;;;1.17;1.02;;;21.00;55.40;;;;;;4991192;28;20249;-60
2022/03/16 01:31:25;;;;;;;1.30;1.00;;;21.00;55.40;;;;;;4990669;28;20194;-59
2022/03/16 01:33:58;;;;;;;1.10;1.00;;;21.00;55.30;;;;;;4990955;28;20190;-59
2022/03/16 01:36:29;;;;;;;1.10;1.00;;;21.00;55.40;;;;;;4990162;28;20311;-60
2022/03/16 01:38:59;;;;;;;1.40;1.30;;;21.10;55.30;;;;;;4989977;28;20300;-59
2022/03/16 01:41:30;;;;;;;1.08;0.98;;;21.10;55.30;;;;;;4990498;28;20201;-60
2022/03/16 01:44:00;;;;;;;1.33;1.20;;;21.10;55.20;;;;;;4990558;28;20201;-60
2022/03/16 01:46:31;;;;;;;1.10;1.00;;;21.10;55.20;;;;;;4990527;28;20656;-55
2022/03/16 01:49:04;;;;;;;1.35;1.25;;;21.20;55.30;;;;;;4991029;28;20193;-60
2022/03/16 01:51:35;;;;;;;1.30;1.02;;;21.20;55.30;;;;;;4990768;28;20314;-55
2022/03/16 01:54:06;;;;;;;1.75;1.33;;;21.20;55.30;;;;;;4990346;28;20615;-60
2022/03/16 01:59:12;;;;;;;1.30;1.20;;;21.20;55.30;;;;;;4969335;28;20236;-60
2022/03/16 02:01:43;;;;;;;1.75;1.10;;;21.20;55.30;;;;;;4971205;28;20260;-61
2022/03/16 02:04:15;;;;;;;1.40;1.30;;;21.30;55.50;;;;;;4970912;28;20742;-58
2022/03/16 02:06:46;;;;;;;1.02;0.90;;;21.30;55.50;;;;;;4959319;28;20227;-60
2022/03/16 02:09:17;;;;;;;1.02;0.93;;;21.30;55.50;;;;;;4951091;28;20250;-59
2022/03/16 02:11:47;;;;;;;1.88;0.90;;;21.30;55.50;;;;;;4951640;29;20262;-59
2022/03/16 02:14:18;;;;;;;1.80;1.13;;;21.40;55.60;;;;;;4951852;29;20206;-58
2022/03/16 02:16:50;;;;;;;1.48;1.02;;;21.30;55.50;;;;;;4951547;28;20301;-60
2022/03/16 02:19:22;;;;;;;1.77;1.20;;;21.40;55.60;;;;;;4951858;29;20301;-60
2022/03/16 02:21:59;;;;;;;2.55;1.00;;;21.40;56.00;;;;;;4951381;29;20623;-58
2022/03/16 02:24:31;;;;;;;1.75;1.30;;;21.50;56.10;;;;;;4951433;29;20249;-60
2022/03/16 02:27:02;;;;;;;1.67;1.15;;;21.50;56.10;;;;;;4951298;28;20222;-60
2022/03/16 02:29:34;;;;;;;1.88;1.10;;;21.50;56.00;;;;;;4950751;29;20735;-59
2022/03/16 02:32:05;;;;;;;1.58;1.20;;;21.50;56.00;;;;;;4950848;29;20203;-60
2022/03/16 02:34:35;;;;;;;1.92;1.20;;;21.60;56.00;;;;;;4949189;28;20617;-61
2022/03/16 02:37:06;;;;;;;1.67;1.10;;;21.60;55.90;;;;;;4951062;28;20222;-60
2022/03/16 02:39:39;;;;;;;1.67;1.00;;;21.60;55.80;;;;;;4950369;29;20766;-60
2022/03/16 02:42:10;;;;;;;2.08;1.13;;;21.60;55.70;;;;;;4951759;29;20199;-60
2022/03/16 02:44:40;;;;;;;1.75;1.10;;;21.60;55.60;;;;;;4951517;29;20598;-57
2022/03/16 02:47:11;;;;;;;1.38;1.10;;;21.60;55.50;;;;;;4951444;28;20691;-60
2022/03/16 02:49:42;;;;;;;1.90;1.02;;;21.70;55.60;;;;;;4951267;29;20755;-60
2022/03/16 02:52:13;;;;;;;2.17;1.20;;;21.70;55.50;;;;;;4950913;29;20206;-59
2022/03/16 02:54:46;;;;;;;2.80;1.00;;;21.80;55.50;;;;;;4950833;29;20199;-59
2022/03/16 02:57:16;;;;;;;2.30;1.10;;;21.80;55.40;;;;;;4967328;23;20241;-59
2022/03/16 02:59:47;;;;;;;2.28;1.05;;;21.80;55.30;;;;;;4970572;28;20268;-60
2022/03/16 03:02:18;;;;;;;1.85;1.05;;;21.80;55.30;;;;;;4970386;28;20576;-60
2022/03/16 03:04:48;;;;;;;2.75;1.10;;;21.90;55.20;;;;;;4970078;28;20245;-60
2022/03/16 03:07:19;;;;;;;1.85;1.15;;;21.90;55.10;;;;;;4985112;28;20213;-59
2022/03/16 03:09:52;;;;;;;2.22;1.23;;;21.90;55.00;;;;;;4989088;28;20201;-60
2022/03/16 03:12:22;;;;;;;2.40;1.10;;;22.00;55.00;;;;;;4989707;28;20229;-60
2022/03/16 03:14:53;;;;;;;2.72;1.48;;;22.00;54.90;;;;;;4989410;28;20256;-60
2022/03/16 03:17:24;;;;;;;2.78;0.80;;;22.00;54.80;;;;;;4989286;28;20216;-59
2022/03/16 03:19:54;;;;;;;2.35;1.02;;;22.10;54.80;;;;;;4988717;28;20320;-60
2022/03/16 03:22:29;;;;;;;2.67;1.10;;;22.10;54.70;;;;;;4989409;28;20197;-58
2022/03/16 03:25:02;;;;;;;1.48;0.98;;;22.20;54.60;;;;;;4989433;28;20200;-60
2022/03/16 03:27:32;;;;;;;1.98;1.13;;;22.20;54.60;;;;;;4989006;28;20283;-60
2022/03/16 03:30:03;;;;;;;2.42;1.15;;;22.20;54.50;;;;;;4988745;28;20201;-60
2022/03/16 03:32:33;;;;;;;2.92;0.93;;;22.20;54.40;;;;;;4990049;28;20201;-60
2022/03/16 03:35:05;;;;;;;1.50;1.25;;;22.20;54.30;;;;;;4989365;28;20260;-55
2022/03/16 03:37:36;;;;;;;2.45;1.20;;;22.30;54.40;;;;;;4988716;28;20221;-59
2022/03/16 03:40:10;;;;;;;1.80;0.98;;;22.30;54.30;;;;;;4989012;28;20236;-60
2022/03/16 03:42:41;;;;;;;1.52;0.90;;;22.30;54.20;;;;;;4988613;28;20202;-58
2022/03/16 03:45:12;;;;;;;2.35;1.20;;;22.40;54.20;;;;;;4988851;28;20193;-58
2022/03/16 03:47:42;;;;;;;2.85;1.33;;;22.40;54.20;;;;;;4988002;28;20300;-57
2022/03/16 03:50:13;;;;;;;1.67;0.93;;;22.40;54.10;;;;;;4989307;28;20197;-59
2022/03/16 03:52:44;;;;;;;3.00;1.13;;;22.40;54.00;;;;;;4988120;28;20270;-58
2022/03/16 03:55:16;;;;;;;1.77;1.02;;;22.40;54.00;;;;;;4988131;28;20193;-58
2022/03/16 03:57:47;;;;;;;1.77;1.00;;;22.40;54.00;;;;;;4989216;28;20220;-58
2022/03/16 04:00:18;;;;;;;1.73;0.95;;;22.50;53.90;;;;;;4988544;28;20279;-55
2022/03/16 04:02:52;;;;;;;2.55;0.90;;;22.50;53.80;;;;;;4988826;28;20213;-59
2022/03/16 04:05:23;;;;;;;2.05;0.95;;;22.50;53.80;;;;;;4988921;28;20264;-59
2022/03/16 04:07:53;;;;;;;2.72;1.10;;;22.60;53.70;;;;;;4987827;28;20381;-61
2022/03/16 04:10:26;;;;;;;2.30;0.90;;;22.60;53.60;;;;;;4988065;28;20197;-61
2022/03/16 04:12:57;;;;;;;1.75;1.00;;;22.60;53.60;;;;;;4989414;28;20205;-60
2022/03/16 04:15:27;;;;;;;2.85;0.90;;;22.60;53.50;;;;;;4988286;28;20724;-60
2022/03/16 04:17:58;;;;;;;2.33;1.20;;;22.60;53.50;;;;;;4989007;28;20202;-59
2022/03/16 04:20:28;;;;;;;1.98;0.98;;;22.60;53.40;;;;;;4988796;28;20287;-57
2022/03/16 04:22:59;;;;;;;1.70;0.75;;;22.60;53.40;;;;;;4988744;28;20190;-59
2022/03/16 04:25:31;;;;;;;2.88;1.13;;;22.60;53.30;;;;;;4988203;28;20244;-60
2022/03/16 04:28:02;;;;;;;1.60;0.85;;;22.60;53.20;;;;;;4987750;28;20252;-58
2022/03/16 04:30:33;;;;;;;2.72;0.90;;;22.70;53.30;;;;;;4988994;28;20248;-53
2022/03/16 04:33:03;;;;;;;2.33;0.98;;;22.70;53.20;;;;;;4988807;28;20202;-58
2022/03/16 04:35:34;;;;;;;2.15;0.95;;;22.70;53.20;;;;;;4992255;28;20264;-59
2022/03/16 04:38:05;;;;;;;3.00;1.20;;;22.70;53.10;;;;;;4991846;28;20216;-57
2022/03/16 04:40:38;;;;;;;3.47;1.10;;;22.70;53.00;;;;;;4992285;28;20239;-59
2022/03/16 04:43:08;;;;;;;1.75;0.93;;;22.70;53.00;;;;;;4991866;28;20292;-59
2022/03/16 04:45:39;;;;;;;2.35;1.10;;;22.70;53.00;;;;;;4990946;28;20202;-58
2022/03/16 04:48:11;;;;;;;1.55;0.80;;;22.70;53.00;;;;;;4991948;28;20284;-57
2022/03/16 04:50:42;;;;;;;1.88;1.00;;;22.80;53.00;;;;;;4991949;28;20662;-59
2022/03/16 04:53:13;;;;;;;3.40;1.20;;;22.80;52.90;;;;;;4992040;28;20728;-58
2022/03/16 04:55:45;;;;;;;3.80;1.15;;;22.70;52.80;;;;;;4992210;28;20253;-59
2022/03/16 04:58:16;;;;;;;2.80;1.10;;;22.70;52.80;;;;;;4992581;28;20209;-58
2022/03/16 05:00:46;;;;;;;3.45;1.08;;;22.70;52.80;;;;;;4991293;28;20253;-56
2022/03/16 05:03:17;;;;;;;1.75;1.05;;;22.70;52.70;;;;;;4991800;28;20220;-57
2022/03/16 05:05:48;;;;;;;1.85;0.90;;;22.70;52.70;;;;;;4990490;28;20214;-59
2022/03/16 05:08:19;;;;;;;2.30;0.95;;;22.70;52.70;;;;;;4991567;28;20196;-56
2022/03/16 05:10:51;;;;;;;2.90;1.05;;;22.60;52.60;;;;;;4990920;28;20201;-58
2022/03/16 05:13:22;;;;;;;1.83;0.90;;;22.60;52.70;;;;;;4992011;28;20252;-59
2022/03/16 05:15:53;;;;;;;3.05;0.80;;;22.60;52.60;;;;;;4991430;28;20230;-59
2022/03/16 05:18:23;;;;;;;2.58;1.17;;;22.60;52.60;;;;;;4991177;28;20263;-60
2022/03/16 05:20:54;;;;;;;1.90;0.93;;;22.60;52.60;;;;;;4991837;28;20772;-59
2022/03/16 05:23:27;;;;;;;2.38;1.08;;;22.60;52.60;;;;;;4990598;28;20256;-58
2022/03/16 05:26:00;;;;;;;2.88;1.10;;;22.60;52.60;;;;;;4991931;28;20214;-58
2022/03/16 05:28:30;;;;;;;2.45;1.05;;;22.50;52.60;;;;;;4990931;28;20194;-59
2022/03/16 05:31:01;;;;;;;2.53;0.95;;;22.50;52.60;;;;;;4991554;28;20194;-56
2022/03/16 05:33:32;;;;;;;3.17;1.00;;;22.50;52.50;;;;;;4991136;28;20198;-58
2022/03/16 05:36:02;;;;;;;3.30;0.90;;;22.50;52.50;;;;;;4991433;28;20209;-58
2022/03/16 05:38:33;;;;;;;2.20;1.10;;;22.50;52.50;;;;;;4990652;28;20248;-59
2022/03/16 05:41:05;;;;;;;3.10;1.30;;;22.50;52.60;;;;;;4992203;28;20217;-49
2022/03/16 05:43:36;;;;;;;1.52;0.80;;;22.50;52.50;;;;;;5012113;28;20645;-60
2022/03/16 05:46:07;;;;;;;2.75;1.00;;;22.50;52.50;;;;;;4999001;28;20744;-60
2022/03/16 05:48:37;;;;;;;2.22;1.00;;;22.50;52.50;;;;;;4990970;28;20245;-57
2022/03/16 05:51:08;;;;;;;1.98;0.93;;;22.40;52.50;;;;;;4990737;28;20197;-58
2022/03/16 05:53:39;;;;;;;2.70;1.05;;;22.40;52.50;;;;;;4990334;28;20208;-59
2022/03/16 05:56:11;;;;;;;1.25;0.80;;;22.40;52.50;;;;;;4990535;28;20214;-59
2022/03/16 05:58:42;;;;;;;1.92;1.20;;;22.40;52.50;;;;;;4991383;28;20268;-59
2022/03/16 06:01:12;;;;;;;2.25;1.05;;;22.40;52.50;;;;;;4992024;28;20727;-60
2022/03/16 06:03:43;;;;;;;2.92;1.13;;;22.40;52.50;;;;;;4991533;28;20198;-58
2022/03/16 06:06:15;;;;;;;2.58;1.23;;;22.40;52.50;;;;;;4991459;28;20225;-58
2022/03/16 06:08:46;;;;;;;2.63;1.10;;;22.30;52.50;;;;;;4991513;28;20197;-59
2022/03/16 06:11:18;;;;;;;2.90;1.10;;;22.30;52.50;;;;;;4991240;28;20201;-59
2022/03/16 06:13:49;;;;;;;2.40;1.10;;;22.30;52.50;;;;;;4991069;28;20256;-57
2022/03/16 06:16:19;;;;;;;2.85;1.23;;;22.30;52.60;;;;;;4991553;28;20281;-59
2022/03/16 06:18:50;;;;;;;2.33;0.93;;;22.30;52.60;;;;;;4992055;28;20198;-58
2022/03/16 06:21:20;;;;;;;1.63;0.80;;;22.20;52.60;;;;;;4992035;28;20221;-60
2022/03/16 06:23:51;;;;;;;2.88;1.02;;;22.20;52.60;;;;;;4991762;28;20201;-58
2022/03/16 06:26:23;;;;;;;2.05;0.95;;;22.20;52.60;;;;;;4991602;28;20221;-60
2022/03/16 06:28:54;;;;;;;2.45;1.15;;;22.20;52.60;;;;;;4991429;28;20608;-57
2022/03/16 06:31:24;;;;;;;3.78;1.10;;;22.20;52.60;;;;;;4991758;28;20264;-59
2022/03/16 06:33:55;;;;;;;3.15;1.10;;;22.20;52.60;;;;;;4991800;28;20371;-56
2022/03/16 06:36:26;;;;;;;2.88;1.10;;;22.10;52.50;;;;;;4991645;28;20233;-59
2022/03/16 06:38:57;;;;;;;2.50;1.00;;;22.20;52.60;;;;;;4991444;28;20196;-59
2022/03/16 06:41:29;;;;;;;3.03;1.17;;;22.10;52.50;;;;;;4991134;28;20229;-57
2022/03/16 06:44:00;;;;;;;1.77;0.90;;;22.10;52.50;;;;;;4990723;28;20649;-53
2022/03/16 06:46:31;;;;;;;3.20;1.00;;;22.10;52.50;;;;;;4987829;28;20277;-59
2022/03/16 06:49:02;;;;;;;2.03;0.93;;;22.10;52.50;;;;;;4990910;28;20205;-57
2022/03/16 06:51:32;;;;;;;1.67;0.93;;;22.10;52.50;;;;;;4991070;28;20201;-58
2022/03/16 06:54:03;;;;;;;3.15;1.20;;;22.00;52.50;;;;;;4987737;28;20268;-59
2022/03/16 06:56:38;;;;;;;1.25;0.77;;;22.00;52.50;;;;;;4989608;28;20291;-59
2022/03/16 06:59:08;;;;;;;3.88;0.85;;;22.00;52.50;;;;;;4989869;28;20513;-59
2022/03/16 07:01:39;;;;;;;1.50;0.80;;;22.00;52.50;;;;;;4990843;28;20236;-58
2022/03/16 07:04:10;;;;;;;3.45;0.88;;;22.00;52.50;;;;;;4984869;28;20696;-59
2022/03/16 07:06:41;;;;;;;3.08;1.27;;;21.90;52.60;;;;;;4989705;28;20225;-59
2022/03/16 07:09:11;;;;;;;2.13;1.05;;;21.90;52.60;;;;;;4989663;28;20251;-59
2022/03/16 07:11:44;;;;;;;2.47;0.80;;;21.90;52.60;;;;;;4989536;28;20272;-61
2022/03/16 07:14:32;;;;;;;1.45;0.93;;;21.90;52.60;;;;;;4990001;28;20260;-53
2022/03/16 07:17:03;;;;;;;2.35;0.90;;;21.90;52.70;;;;;;4988555;28;20229;-59
2022/03/16 07:19:34;;;;;;;1.85;0.70;;;21.90;52.70;;;;;;4989792;28;20197;-62
2022/03/16 07:22:05;;;;;;;4.22;1.08;;;21.90;52.70;;;;;;4988962;28;20849;-59
2022/03/16 07:24:35;;;;;;;2.65;0.82;;;21.90;52.70;;;;;;4989324;28;20248;-59
2022/03/16 07:27:08;;;;;;;1.77;1.10;;;21.90;52.80;;;;;;4988928;28;20708;-59
2022/03/16 07:29:39;;;;;;;3.17;0.95;;;21.90;52.80;;;;;;4989256;28;20201;-59
2022/03/16 07:32:10;;;;;;;2.00;1.00;;;21.80;52.80;;;;;;4989031;28;20263;-59
2022/03/16 07:34:41;;;;;;;2.38;0.90;;;21.80;52.80;;;;;;4988941;28;20194;-56
2022/03/16 07:37:11;;;;;;;2.63;0.98;;;21.80;52.80;;;;;;4987950;28;20689;-57
2022/03/16 07:39:42;;;;;;;2.63;1.10;;;21.80;52.90;;;;;;4989306;28;20614;-60
2022/03/16 07:42:14;;;;;;;2.75;0.88;;;21.80;52.90;;;;;;4988683;28;20288;-60
2022/03/16 07:44:45;;;;;;;1.88;1.00;;;21.80;53.00;;;;;;4988562;28;20709;-58
2022/03/16 07:47:16;;;;;;;2.42;1.10;;;21.70;52.90;;;;;;4988708;28;20217;-59
2022/03/16 07:49:46;;;;;;;2.53;0.88;;;21.70;52.90;;;;;;4988377;28;20189;-56
2022/03/16 07:52:17;;;;;;;2.13;0.80;;;21.70;53.00;;;;;;4988511;28;20202;-59
2022/03/16 07:54:48;;;;;;;1.92;0.93;;;21.70;53.00;;;;;;4988222;28;20190;-59
2022/03/16 07:57:20;;;;;;;2.20;1.00;;;21.70;53.00;;;;;;4989263;28;20288;-60
2022/03/16 07:59:51;;;;;;;1.88;0.90;;;21.70;53.00;;;;;;4988279;28;20535;-60
2022/03/16 08:02:22;;;;;;;2.20;1.00;;;21.60;52.90;;;;;;4988422;28;20202;-57
2022/03/16 08:04:52;;;;;;;1.73;1.00;;;21.60;52.90;;;;;;4988872;28;20198;-59
2022/03/16 08:07:23;;;;;;;1.58;0.90;;;21.60;52.90;;;;;;4989638;28;20232;-58
2022/03/16 08:09:53;;;;;;;2.40;1.02;;;21.60;53.00;;;;;;4993102;28;20193;-58
2022/03/16 08:12:26;;;;;;;1.13;0.80;;;21.60;53.00;;;;;;4992292;28;20258;-59
2022/03/16 08:14:57;;;;;;;1.55;0.80;;;21.60;53.00;;;;;;4991446;28;20256;-59
2022/03/16 08:17:28;;;;;;;1.92;1.17;;;21.60;53.00;;;;;;4991683;28;20218;-60
2022/03/16 08:19:59;;;;;;;2.25;1.10;;;21.60;53.00;;;;;;4992388;28;20201;-59
2022/03/16 08:22:31;;;;;;;2.15;1.00;;;21.50;53.00;;;;;;4992944;28;20205;-60
2022/03/16 08:25:02;;;;;;;3.15;1.35;;;21.50;53.00;;;;;;4990888;28;20670;-58
2022/03/16 08:27:35;;;;;;;2.80;0.85;;;21.50;53.20;;;;;;4992465;28;20300;-58
2022/03/16 08:30:06;;;;;;;1.65;1.02;;;21.50;54.00;;;;;;4992097;28;20201;-58
2022/03/16 08:32:37;;;;;;;1.55;0.90;;;21.50;53.40;;;;;;4992283;28;20260;-59
2022/03/16 08:35:08;;;;;;;1.92;1.10;;;21.50;53.30;;;;;;4992145;28;20716;-58
2022/03/16 08:37:39;;;;;;;1.90;1.20;;;21.50;53.30;;;;;;4992438;28;20304;-59
2022/03/16 08:40:11;;;;;;;1.55;1.15;;;21.50;53.30;;;;;;4991126;28;20240;-59
2022/03/16 08:42:43;;;;;;;2.55;1.17;;;21.50;53.30;;;;;;4991715;28;20198;-54
2022/03/16 08:45:14;;;;;;;0.85;0.70;;;21.40;53.30;;;;;;4991496;28;20201;-59
2022/03/16 08:47:45;;;;;;;1.90;1.00;;;21.50;53.30;;;;;;4992017;28;20225;-59
2022/03/16 08:50:15;;;;;;;1.85;1.10;;;21.40;53.30;;;;;;4991675;28;20558;-59
2022/03/16 08:52:47;;;;;;;2.05;0.90;;;21.40;53.30;;;;;;4991563;28;20209;-60
2022/03/16 08:55:18;;;;;;;2.17;1.02;;;21.40;53.30;;;;;;4991800;28;20795;-58
2022/03/16 08:57:50;;;;;;;2.05;1.00;;;21.40;53.30;;;;;;5007718;23;20442;-57
2022/03/16 09:00:21;;;;;;;1.77;0.95;;;21.30;53.30;;;;;;5010876;28;20196;-52
2022/03/16 09:02:52;;;;;;;1.92;1.00;;;21.40;53.40;;;;;;5011607;28;20204;-52
2022/03/16 09:05:22;;;;;;;2.22;1.20;;;21.30;53.30;;;;;;5011969;28;20251;-56
2022/03/16 09:07:53;;;;;;;2.63;1.20;;;21.30;53.30;;;;;;5011285;28;20656;-53
2022/03/16 09:10:24;;;;;;;1.83;0.90;;;21.30;53.30;;;;;;5010910;28;20298;-54
2022/03/16 09:12:56;;;;;;;1.83;0.85;;;21.30;53.30;;;;;;5011703;28;20189;-53
2022/03/16 09:15:27;;;;;;;2.15;1.10;;;21.30;53.30;;;;;;5010867;28;20193;-52
2022/03/16 09:17:58;;;;;;;1.67;1.00;;;21.30;53.30;;;;;;5011396;28;20208;-52
2022/03/16 09:20:28;;;;;;;2.97;1.05;;;21.30;53.30;;;;;;5009153;28;20251;-56
2022/03/16 09:22:59;;;;;;;2.10;1.05;;;21.30;53.30;;;;;;5011129;28;20255;-54
2022/03/16 09:25:30;;;;;;;1.92;0.98;;;21.20;53.30;;;;;;5010537;28;20201;-57
2022/03/16 09:28:02;;;;;;;2.60;1.05;;;21.20;53.30;;;;;;5011431;28;20661;-57
2022/03/16 09:30:33;;;;;;;1.90;1.00;;;21.20;53.30;;;;;;5010465;28;20197;-54
2022/03/16 09:33:04;;;;;;;1.75;1.00;;;21.20;53.30;;;;;;5010852;28;20197;-55
2022/03/16 09:35:35;;;;;;;1.52;0.90;;;21.20;53.90;;;;;;5010316;28;20212;-55
2022/03/16 09:38:05;;;;;;;3.22;1.13;;;21.20;53.40;;;;;;5009556;28;20611;-56
2022/03/16 09:40:38;;;;;;;2.20;1.20;;;21.20;53.40;;;;;;5009032;28;20235;-54
2022/03/16 09:43:11;;;;;;;5.82;1.10;;;21.20;53.40;;;;;;5010529;28;20255;-56
2022/03/16 09:45:52;;;;;;;6.25;1.20;;;21.20;53.50;;;;;;5010335;28;20189;-52
2022/03/16 09:48:23;;;;;;;4.70;1.27;;;21.20;53.50;;;;;;5010927;28;20206;-51
2022/03/16 09:50:55;;;;;;;5.93;1.45;;;21.10;53.40;;;;;;5011295;28;20209;-50
2022/03/16 09:53:26;;;;;;;3.92;1.10;;;21.10;53.40;;;;;;5009953;28;20231;-54
2022/03/16 09:55:57;;;;;;;3.83;0.90;;;21.10;53.40;;;;;;5010647;28;20760;-50
2022/03/16 09:58:29;;;;;;;2.17;0.98;;;21.10;53.40;;;;;;5010544;28;20255;-57
2022/03/16 10:01:00;;;;;;;2.05;1.08;;;21.10;53.50;;;;;;5010576;28;20267;-53
2022/03/16 10:03:31;;;;;;;1.98;1.05;;;21.10;53.40;;;;;;5009639;28;20204;-53
2022/03/16 10:06:01;;;;;;;2.85;1.15;;;21.10;53.50;;;;;;5009755;28;20555;-55
2022/03/16 10:08:34;;;;;;;3.80;0.90;;;21.10;53.50;;;;;;5009527;28;20235;-58
2022/03/16 10:14:07;;;;;;;6.45;1.20;;;21.00;53.50;;;;;;5009623;28;20203;-56
2022/03/16 10:17:43;;;;;;;1.30;0.80;;;21.00;53.50;;;;;;5009118;28;20770;-50
2022/03/16 10:19:37;;;;;;;1.90;1.17;;;21.00;53.50;;;;;;5009736;28;20203;-57
2022/03/16 10:22:09;;;;;;;1.80;1.00;;;21.00;53.40;;;;;;5009876;28;20298;-56
2022/03/16 10:24:45;;;;;;;1.73;0.98;;;21.00;53.50;;;;;;5010213;28;20208;-54
2022/03/16 10:27:19;;;;;;;2.47;0.80;;;21.00;53.50;;;;;;5009710;28;20223;-55
2022/03/16 10:29:53;;;;;;;2.92;1.13;;;20.90;53.50;;;;;;5010240;28;20714;-51
2022/03/16 10:32:24;;;;;;;2.42;1.00;;;20.90;53.50;;;;;;5009602;28;20197;-49
2022/03/16 10:34:56;;;;;;;3.22;1.25;;;20.90;53.50;;;;;;5009463;28;20769;-55
2022/03/16 10:37:28;;;;;;;2.45;0.90;;;20.90;53.60;;;;;;5008954;28;20216;-53
2022/03/16 10:39:58;;;;;;;1.45;0.90;;;20.90;53.60;;;;;;5010113;28;20193;-56
2022/03/16 10:48:17;;;;;;;2.92;0.75;;;20.90;53.60;;;;;;5009938;28;20220;-52
2022/03/16 10:50:48;;;;;;;1.52;0.98;;;20.80;53.50;;;;;;5009443;28;20246;-57
2022/03/16 10:53:21;;;;;;;2.00;0.88;;;20.90;53.60;;;;;;5008892;28;20192;-58
2022/03/16 10:55:55;;;;;;;2.33;1.10;;;20.80;53.60;;;;;;5008843;28;20271;-58
2022/03/16 10:58:27;;;;;;;2.15;1.08;;;20.80;53.60;;;;;;5003014;23;20228;-59
2022/03/16 11:01:02;;;;;;;1.52;1.20;;;20.80;53.60;;;;;;4970370;28;20250;-60
2022/03/16 11:03:36;;;;;;;2.85;1.10;;;20.80;53.60;;;;;;4971992;28;20604;-58
2022/03/16 11:06:08;;;;;;;2.08;1.00;;;20.80;53.60;;;;;;4975879;28;20970;-59
2022/03/16 11:08:41;;;;;;;2.35;1.10;;;20.70;53.60;;;;;;4990006;28;20200;-59
2022/03/16 11:13:57;;;;;;;3.10;0.95;;;20.70;53.60;;;;;;4989563;28;20201;-58
2022/03/16 11:16:31;;;;;;;1.95;0.95;;;20.70;53.60;;;;;;4988537;28;20222;-59
2022/03/16 11:19:04;;;;;;;2.42;1.20;;;20.70;53.60;;;;;;4988838;28;20552;-58
2022/03/16 11:21:45;;;;;;;2.47;1.00;;;20.70;53.70;;;;;;4989284;28;20248;-59
2022/03/16 11:24:23;;;;;;;1.20;0.82;;;20.70;53.70;;;;;;4988077;28;20193;-59
2022/03/16 11:27:23;;;;;;;2.05;1.00;;;20.60;53.60;;;;;;4988769;28;20225;-59
2022/03/16 11:30:17;;;;;;;0.95;0.73;;;20.60;53.70;;;;;;4989273;28;20205;-58
2022/03/16 11:32:51;;;;;;;1.27;0.80;;;20.60;53.60;;;;;;4988534;28;20197;-52
2022/03/16 11:35:21;;;;;;;1.63;0.95;;;20.60;53.70;;;;;;4988006;28;20201;-59
2022/03/16 11:37:53;;;;;;;1.88;0.93;;;20.60;53.70;;;;;;4989150;28;20696;-59
2022/03/16 11:40:26;;;;;;;1.58;0.95;;;20.60;53.70;;;;;;4988915;28;20315;-58
2022/03/16 11:43:18;;;;;;;1.67;0.75;;;20.60;53.80;;;;;;4988562;28;20922;-59
2022/03/16 11:45:50;;;;;;;2.20;0.90;;;20.60;53.70;;;;;;4988625;28;20218;-59
2022/03/16 11:48:48;;;;;;;1.08;0.70;;;20.60;53.70;;;;;;4988932;28;20201;-59
2022/03/16 11:51:21;;;;;;;1.20;1.02;;;20.50;53.70;;;;;;4988953;28;20668;-59
2022/03/16 11:54:10;;;;;;;1.00;0.60;;;20.60;53.70;;;;;;4989157;28;20202;-58
2022/03/16 11:57:00;;;;;;;1.80;0.90;;;20.50;53.70;;;;;;4987758;28;20217;-57
2022/03/16 11:59:40;;;;;;;0.90;0.80;;;20.50;53.80;;;;;;4985335;28;20197;-59
2022/03/16 12:02:23;;;;;;;1.73;0.82;;;20.50;53.70;;;;;;4986056;28;20212;-58
2022/03/16 12:05:06;;;;;;;1.50;0.80;;;20.50;53.70;;;;;;4988076;28;20201;-58
2022/03/16 12:07:37;;;;;;;2.75;0.90;;;20.50;53.70;;;;;;4988269;28;20212;-58
2022/03/16 12:10:13;;;;;;;1.27;0.80;;;20.50;53.70;;;;;;4991725;28;20255;-59
2022/03/16 12:12:54;;;;;;;1.10;0.80;;;20.40;53.70;;;;;;4990124;28;20189;-58
2022/03/16 12:15:34;;;;;;;1.58;0.90;;;20.40;53.70;;;;;;4988831;28;20684;-59
2022/03/16 12:18:41;;;;;;;1.98;0.80;;;20.40;53.70;;;;;;4989391;28;20268;-59
2022/03/16 12:21:14;;;;;;;1.23;0.80;;;20.40;53.70;;;;;;4989675;28;20193;-59
2022/03/16 12:23:57;;;;;;;1.77;0.95;;;20.40;53.70;;;;;;4989511;28;20618;-60
2022/03/16 12:26:29;;;;;;;1.38;0.75;;;20.40;53.70;;;;;;4989816;28;20248;-60
2022/03/16 12:29:08;;;;;;;0.73;0.70;;;20.30;53.70;;;;;;4990234;28;20244;-59
2022/03/16 12:31:42;;;;;;;1.65;0.90;;;20.30;53.70;;;;;;4990060;28;20695;-60
2022/03/16 12:34:18;;;;;;;1.65;0.80;;;20.30;53.80;;;;;;4989404;28;20194;-60
2022/03/16 12:36:51;;;;;;;1.67;0.77;;;20.30;53.80;;;;;;4989762;28;20221;-61
2022/03/16 12:39:22;;;;;;;1.30;0.85;;;20.30;53.70;;;;;;4989507;28;20209;-57
2022/03/16 12:44:50;;;;;;;1.65;0.93;;;20.30;53.80;;;;;;4990193;28;20268;-61
2022/03/16 12:47:28;;;;;;;1.75;0.88;;;20.30;53.70;;;;;;4989890;28;20713;-61
2022/03/16 12:49:59;;;;;;;2.20;1.00;;;20.30;53.80;;;;;;4989422;28;20272;-60
2022/03/16 12:52:31;;;;;;;1.83;0.80;;;20.30;53.80;;;;;;4970664;28;20195;-61
2022/03/16 12:55:03;;;;;;;1.88;0.90;;;20.20;53.80;;;;;;4990382;28;20204;-60
2022/03/16 13:59:45;;;;;;;1.15;0.60;;;19.80;53.80;;;;;;5006919;23;20232;-60
2022/03/16 14:02:16;;;;;;;1.05;0.70;;;19.80;53.80;;;;;;4992180;28;20229;-60
2022/03/16 14:04:47;;;;;;;1.38;0.80;;;19.80;53.80;;;;;;4991500;28;20548;-60
2022/03/16 14:07:23;;;;;;;0.88;0.63;;;19.80;53.80;;;;;;5007264;28;20224;-60
2022/03/16 14:09:54;;;;;;;1.80;0.80;;;19.80;53.80;;;;;;5011467;28;20204;-59
2022/03/16 14:12:25;;;;;;;0.50;0.50;;;19.80;53.80;;;;;;5011757;28;20539;-60
2022/03/16 14:15:16;;;;;;;0.98;0.65;;;19.70;53.70;;;;;;5003797;28;20197;-60
2022/03/16 14:17:58;;;;;;;0.55;0.50;;;19.70;53.70;;;;;;4991690;28;20320;-61
2022/03/16 14:20:32;;;;;;;1.13;0.70;;;19.70;53.70;;;;;;4992020;28;20240;-60
2022/03/16 14:23:04;;;;;;;1.13;0.85;;;19.60;53.70;;;;;;4992178;28;20248;-60
2022/03/16 14:25:37;;;;;;;1.60;0.60;;;19.70;53.80;;;;;;4992034;28;20653;-62
2022/03/16 14:28:08;;;;;;;1.02;0.70;;;19.60;53.70;;;;;;4991936;28;20228;-61
2022/03/16 14:30:45;;;;;;;2.40;0.70;;;19.60;53.80;;;;;;5010152;28;20200;-61
2022/03/16 14:33:15;;;;;;;0.70;0.70;;;19.60;53.80;;;;;;5011114;28;20727;-60